This is the latest recevied weather packets stored in our database for station/object SQ5OUZ-1. If no packets are shown the sender has not sent any weather packets the latest 1 day(s).
| Time | Temp. | Humidity | Pressure | Rain* | Wind** | Luminosity | Snow |
|---|---|---|---|---|---|---|---|
| 1777964161 | 31.67° C | 17% | 1011.6 hPa | - | 0 m/s | - | - |
| 1777963258 | 31.11° C | 18% | 1011.7 hPa | - | 0 m/s | - | - |
| 1777962355 | 29.44° C | 19% | 1011.8 hPa | - | 0 m/s | - | - |
| 1777961452 | 29.44° C | 19% | 1011.9 hPa | - | 0 m/s | - | - |
| 1777960548 | 28.33° C | 21% | 1011.8 hPa | - | 0 m/s | - | - |
| 1777959645 | 26.67° C | 23% | 1011.9 hPa | - | 0 m/s | - | - |
| 1777958742 | 25° C | 25% | 1011.9 hPa | - | 0 m/s | - | - |
| 1777957838 | 23.33° C | 28% | 1012 hPa | - | 0 m/s | - | - |
| 1777956935 | 21.67° C | 31% | 1012 hPa | - | 0 m/s | - | - |
| 1777956032 | 20° C | 36% | 1011.9 hPa | - | 0 m/s | - | - |
| 1777955129 | 18.33° C | 41% | 1012 hPa | - | 0 m/s | - | - |
| 1777954226 | 15.56° C | 46% | 1012 hPa | - | 0 m/s | - | - |
| 1777953322 | 14.44° C | 49% | 1012.1 hPa | - | 0 m/s | - | - |
| 1777952419 | 13.89° C | 52% | 1012.1 hPa | - | 0 m/s | - | - |
| 1777951516 | 13.89° C | 52% | 1012.1 hPa | - | 0 m/s | - | - |
| 1777950612 | 13.89° C | 52% | 1012.1 hPa | - | 0 m/s | - | - |
| 1777949709 | 14.44° C | 50% | 1012.2 hPa | - | 0 m/s | - | - |
| 1777948806 | 13.89° C | 51% | 1012.3 hPa | - | 0 m/s | - | - |
| 1777947903 | 13.89° C | 52% | 1012.4 hPa | - | 0 m/s | - | - |
| 1777947000 | 14.44° C | 51% | 1012.4 hPa | - | 0 m/s | - | - |
| 1777946096 | 14.44° C | 49% | 1012.4 hPa | - | 0 m/s | - | - |
| 1777945193 | 15° C | 49% | 1012.5 hPa | - | 0 m/s | - | - |
* Rain since midnight (hover to see other rain measurements)
** Current wind speed in m/s (hover to see current wind gust speed)